Time;durP1;ratioP1;P1;durP2;ratioP2;P2;SDS_P1;SDS_P2;PMS_P1;PMS_P2;Temp;Humidity;BMP_temperature;BMP_pressure;BME280_temperature;BME280_humidity;BME280_pressure;Samples;Min_cycle;Max_cycle;Signal;HPM_P1;HPM_P2
2022/03/22 00:01:07;;;;;;;33.17;17.33;;;;;;;;;;5076952;28;20047;-60
2022/03/22 00:03:33;;;;;;;36.55;13.55;;;;;;;;;;5082770;28;20382;-60
2022/03/22 00:05:59;;;;;;;31.23;9.80;;;;;;;;;;5073451;28;20024;-62
2022/03/22 00:08:25;;;;;;;26.88;8.75;;;;;;;;;;5067426;28;20024;-61
2022/03/22 00:10:51;;;;;;;47.15;18.13;;;;;;;;;;5069970;28;20040;-59
2022/03/22 00:13:17;;;;;;;40.55;15.30;;;;;;;;;;5073913;28;20418;-62
2022/03/22 00:15:44;;;;;;;26.08;12.18;;;;;;;;;;5074286;28;20023;-61
2022/03/22 00:18:10;;;;;;;26.17;9.80;;;;;;;;;;5061150;28;20117;-60
2022/03/22 00:20:37;;;;;;;30.35;10.13;;;;;;;;;;5068513;28;20021;-60
2022/03/22 00:23:03;;;;;;;23.58;8.88;;;;;;;;;;5073609;28;20048;-60
2022/03/22 00:25:29;;;;;;;20.83;8.70;;;;;;;;;;5072502;28;20107;-61
2022/03/22 00:27:57;;;;;;;23.98;9.20;;;;;;;;;;5072284;28;20078;-60
2022/03/22 00:30:27;;;;;;;21.60;8.15;;;;;;;;;;5074821;28;20654;-61
2022/03/22 00:32:55;;;;;;;22.63;8.68;;;;;;;;;;5079839;28;20024;-63
2022/03/22 00:35:22;;;;;;;22.90;8.50;;;;;;;;;;5075406;28;20020;-60
2022/03/22 00:37:50;;;;;;;23.42;8.50;;;;;;;;;;5088370;28;20024;-61
2022/03/22 00:40:19;;;;;;;23.40;8.02;;;;;;;;;;5073485;28;20028;-64
2022/03/22 00:42:46;;;;;;;23.20;7.93;;;;;;;;;;5070455;28;20024;-62
2022/03/22 00:45:16;;;;;;;20.15;8.10;;;;;;;;;;5076202;28;20029;-62
2022/03/22 00:47:45;;;;;;;22.65;8.20;;;;;;;;;;5073485;28;20074;-62
2022/03/22 00:50:12;;;;;;;21.42;7.80;;;;;;;;;;5074596;28;20028;-62
2022/03/22 00:52:38;;;;;;;21.52;7.97;;;;;;;;;;5073925;28;20435;-62
2022/03/22 00:55:05;;;;;;;21.77;7.68;;;;;;;;;;5072374;28;20493;-62
2022/03/22 00:57:32;;;;;;;22.10;7.15;;;;;;;;;;5075766;28;20032;-62
2022/03/22 01:00:01;;;;;;;19.35;7.43;;;;;;;;;;5075979;28;20118;-62
2022/03/22 01:02:27;;;;;;;20.67;7.63;;;;;;;;;;5074636;28;20039;-62
2022/03/22 01:04:55;;;;;;;20.05;7.63;;;;;;;;;;5073858;28;20024;-62
2022/03/22 01:07:21;;;;;;;22.27;7.22;;;;;;;;;;5073934;28;20028;-62
2022/03/22 01:09:47;;;;;;;20.10;6.80;;;;;;;;;;5074301;28;20041;-62
2022/03/22 01:12:15;;;;;;;19.98;6.82;;;;;;;;;;5073014;28;20078;-62
2022/03/22 01:14:42;;;;;;;19.75;6.93;;;;;;;;;;5074643;28;20028;-62
2022/03/22 01:17:08;;;;;;;19.25;6.68;;;;;;;;;;5074517;28;20029;-62
2022/03/22 01:19:35;;;;;;;19.60;6.68;;;;;;;;;;5074320;28;20032;-62
2022/03/22 01:22:01;;;;;;;20.35;7.28;;;;;;;;;;5073969;28;20048;-62
2022/03/22 01:24:28;;;;;;;19.08;6.80;;;;;;;;;;5073552;28;20427;-62
2022/03/22 01:26:54;;;;;;;18.38;6.63;;;;;;;;;;5072243;28;20384;-62
2022/03/22 01:29:21;;;;;;;19.95;7.05;;;;;;;;;;5055579;28;20033;-62
2022/03/22 01:31:48;;;;;;;19.90;7.07;;;;;;;;;;5053216;28;20061;-62
2022/03/22 01:34:14;;;;;;;19.08;6.70;;;;;;;;;;5051220;28;20021;-63
2022/03/22 01:36:40;;;;;;;19.48;6.57;;;;;;;;;;5051860;28;20029;-62
2022/03/22 01:39:06;;;;;;;20.27;6.65;;;;;;;;;;5052447;28;20024;-62
2022/03/22 01:41:34;;;;;;;143.30;51.42;;;;;;;;;;5052125;28;20635;-62
2022/03/22 01:44:00;;;;;;;1999.90;999.90;;;;;;;;;;5052935;28;20043;-61
2022/03/22 01:46:27;;;;;;;1999.90;999.90;;;;;;;;;;5052207;28;20025;-61
2022/03/22 01:48:54;;;;;;;1999.90;999.90;;;;;;;;;;5064597;28;20059;-61
2022/03/22 01:51:23;;;;;;;1999.90;999.90;;;;;;;;;;5073332;28;20044;-61
2022/03/22 01:53:50;;;;;;;1999.90;986.45;;;;;;;;;;5070275;28;20096;-61
2022/03/22 01:56:16;;;;;;;1815.60;760.95;;;;;;;;;;5063927;28;20028;-62
2022/03/22 01:58:43;;;;;;;1023.35;495.40;;;;;;;;;;5073213;28;20025;-62
2022/03/22 02:06:40;;;;;;;211.45;80.07;;;;;;;;;;5066062;28;20051;-62
2022/03/22 02:09:06;;;;;;;191.70;73.25;;;;;;;;;;5072447;28;20051;-61
2022/03/22 02:11:32;;;;;;;306.58;119.00;;;;;;;;;;5072481;28;20493;-61
2022/03/22 02:13:58;;;;;;;367.98;143.90;;;;;;;;;;5071018;28;20421;-61
2022/03/22 02:16:24;;;;;;;342.30;133.63;;;;;;;;;;5071807;28;20051;-61
2022/03/22 02:18:51;;;;;;;319.60;132.02;;;;;;;;;;5070806;28;20135;-61
2022/03/22 02:21:18;;;;;;;242.07;100.53;;;;;;;;;;5071465;28;20020;-61
2022/03/22 02:23:49;;;;;;;194.88;81.55;;;;;;;;;;5072258;28;20497;-61
2022/03/22 02:26:16;;;;;;;194.95;80.88;;;;;;;;;;5067776;28;20024;-62
2022/03/22 02:28:43;;;;;;;203.82;82.65;;;;;;;;;;5070284;28;20107;-61
2022/03/22 02:31:10;;;;;;;213.40;90.82;;;;;;;;;;5070570;28;20097;-61
2022/03/22 02:33:37;;;;;;;209.18;88.18;;;;;;;;;;5069578;28;20016;-61
2022/03/22 02:36:03;;;;;;;202.10;85.35;;;;;;;;;;5072560;28;20032;-61
2022/03/22 02:38:29;;;;;;;196.38;85.28;;;;;;;;;;5072204;28;20024;-61
2022/03/22 02:40:55;;;;;;;161.52;73.68;;;;;;;;;;5067477;28;20505;-61
2022/03/22 02:43:21;;;;;;;223.10;93.10;;;;;;;;;;5069893;28;20035;-63
2022/03/22 02:45:47;;;;;;;214.50;93.78;;;;;;;;;;5074315;28;20081;-64
2022/03/22 02:48:15;;;;;;;195.98;82.00;;;;;;;;;;5072680;28;20508;-63
2022/03/22 02:50:41;;;;;;;236.45;94.90;;;;;;;;;;5069661;28;20559;-61
2022/03/22 02:53:07;;;;;;;195.63;84.70;;;;;;;;;;5069947;28;20121;-61
2022/03/22 02:55:33;;;;;;;203.07;86.43;;;;;;;;;;5065662;28;20116;-60
2022/03/22 02:57:59;;;;;;;191.30;77.28;;;;;;;;;;5070705;28;20078;-62
2022/03/22 03:00:26;;;;;;;184.65;81.60;;;;;;;;;;5067623;28;20116;-62
2022/03/22 03:02:53;;;;;;;183.75;80.97;;;;;;;;;;5071715;28;20492;-62
2022/03/22 03:05:20;;;;;;;184.95;77.07;;;;;;;;;;5071564;28;20107;-62
2022/03/22 03:07:47;;;;;;;171.15;73.30;;;;;;;;;;5066157;28;20373;-62
2022/03/22 03:10:13;;;;;;;175.15;74.35;;;;;;;;;;5069587;28;20046;-62
2022/03/22 03:12:39;;;;;;;177.88;73.50;;;;;;;;;;5066959;28;20052;-62
2022/03/22 03:15:07;;;;;;;164.95;70.45;;;;;;;;;;5070541;28;20035;-62
2022/03/22 03:17:33;;;;;;;162.20;67.80;;;;;;;;;;5069309;28;20025;-62
2022/03/22 03:20:00;;;;;;;154.07;66.43;;;;;;;;;;5071179;28;20099;-63
2022/03/22 03:22:26;;;;;;;146.35;63.08;;;;;;;;;;5066113;28;20024;-63
2022/03/22 03:24:52;;;;;;;138.50;60.17;;;;;;;;;;5069138;28;20409;-63
2022/03/22 03:27:18;;;;;;;132.70;57.50;;;;;;;;;;5071240;28;20124;-62
2022/03/22 03:29:44;;;;;;;137.00;56.95;;;;;;;;;;5071655;28;20134;-63
2022/03/22 03:32:10;;;;;;;122.38;53.10;;;;;;;;;;5066293;28;20021;-63
2022/03/22 03:34:37;;;;;;;119.43;52.30;;;;;;;;;;5068823;28;20031;-63
2022/03/22 03:37:03;;;;;;;114.72;51.42;;;;;;;;;;5069944;28;20458;-63
2022/03/22 03:39:29;;;;;;;105.82;48.38;;;;;;;;;;5070720;28;20032;-63
2022/03/22 03:41:57;;;;;;;113.88;49.13;;;;;;;;;;5072121;28;20047;-63
2022/03/22 03:47:12;;;;;;;92.35;43.22;;;;;;;;;;5065278;28;20044;-63
2022/03/22 03:49:42;;;;;;;90.68;41.45;;;;;;;;;;5071217;28;20021;-63
2022/03/22 03:52:12;;;;;;;86.60;40.93;;;;;;;;;;5067006;28;20040;-63
2022/03/22 03:54:38;;;;;;;77.80;38.92;;;;;;;;;;5069804;28;20037;-64
2022/03/22 03:57:05;;;;;;;80.22;37.92;;;;;;;;;;5073450;28;20485;-63
2022/03/22 03:59:32;;;;;;;78.15;37.97;;;;;;;;;;5073534;28;20029;-63
2022/03/22 04:01:58;;;;;;;69.68;34.58;;;;;;;;;;5075045;28;20424;-63
2022/03/22 04:04:24;;;;;;;70.20;34.65;;;;;;;;;;5071475;28;20017;-63
2022/03/22 04:06:50;;;;;;;66.32;33.83;;;;;;;;;;5075369;28;20036;-63
2022/03/22 04:09:16;;;;;;;64.63;31.33;;;;;;;;;;5073510;28;20025;-63
2022/03/22 04:11:44;;;;;;;62.72;32.20;;;;;;;;;;5075017;28;20035;-63
2022/03/22 04:14:10;;;;;;;62.90;30.00;;;;;;;;;;5072193;28;20025;-64
2022/03/22 04:16:36;;;;;;;60.20;28.95;;;;;;;;;;5072147;28;20034;-63
2022/03/22 04:19:05;;;;;;;58.03;29.02;;;;;;;;;;5074089;28;20100;-63
2022/03/22 04:21:34;;;;;;;59.70;27.27;;;;;;;;;;5075036;28;20027;-62
2022/03/22 04:24:00;;;;;;;54.60;27.45;;;;;;;;;;5072624;28;20478;-63
2022/03/22 04:26:26;;;;;;;54.38;26.15;;;;;;;;;;5071860;28;20028;-62
2022/03/22 04:34:22;;;;;;;46.00;24.00;;;;;;;;;;5073037;28;20071;-63
2022/03/22 04:36:57;;;;;;;50.70;23.73;;;;;;;;;;5072819;28;20047;-63
2022/03/22 04:39:26;;;;;;;47.90;23.48;;;;;;;;;;5074493;28;20095;-64
2022/03/22 04:41:53;;;;;;;47.03;22.35;;;;;;;;;;5071485;28;20029;-62
2022/03/22 04:44:19;;;;;;;43.03;20.63;;;;;;;;;;5071426;28;20028;-63
2022/03/22 04:46:45;;;;;;;45.08;20.67;;;;;;;;;;5072357;28;20070;-62
2022/03/22 04:49:11;;;;;;;43.70;20.88;;;;;;;;;;5074661;28;20021;-63
2022/03/22 04:57:07;;;;;;;37.90;18.45;;;;;;;;;;5070217;28;20112;-62
2022/03/22 04:59:33;;;;;;;41.25;18.08;;;;;;;;;;5074658;28;20017;-62
2022/03/22 05:01:59;;;;;;;38.00;17.42;;;;;;;;;;5072493;28;20111;-62
2022/03/22 05:04:25;;;;;;;37.83;17.23;;;;;;;;;;5074043;28;20082;-62
2022/03/22 05:06:52;;;;;;;36.72;17.40;;;;;;;;;;5073037;28;20025;-61
2022/03/22 05:09:18;;;;;;;35.80;16.58;;;;;;;;;;5074516;28;20089;-61
2022/03/22 05:11:44;;;;;;;35.83;16.27;;;;;;;;;;5073368;28;20099;-61
2022/03/22 05:14:10;;;;;;;33.25;15.98;;;;;;;;;;5071297;28;20028;-61
2022/03/22 05:16:38;;;;;;;34.88;16.02;;;;;;;;;;5069036;28;20029;-61
2022/03/22 05:19:05;;;;;;;33.40;15.23;;;;;;;;;;5074607;28;20422;-63
2022/03/22 05:21:31;;;;;;;33.00;14.55;;;;;;;;;;5073926;28;20028;-61
2022/03/22 05:23:57;;;;;;;33.22;14.00;;;;;;;;;;5072492;28;20021;-62
2022/03/22 05:26:26;;;;;;;32.33;14.45;;;;;;;;;;5073065;28;20045;-63
2022/03/22 05:28:53;;;;;;;33.67;14.45;;;;;;;;;;5073523;28;20025;-62
2022/03/22 05:31:21;;;;;;;33.17;14.05;;;;;;;;;;5072395;28;20482;-62
2022/03/22 05:33:48;;;;;;;30.95;13.18;;;;;;;;;;5073325;28;20052;-62
2022/03/22 05:36:14;;;;;;;31.23;13.57;;;;;;;;;;5068693;28;20040;-62
2022/03/22 05:38:40;;;;;;;29.77;12.75;;;;;;;;;;5073757;28;20362;-62
2022/03/22 05:41:08;;;;;;;29.95;13.45;;;;;;;;;;5072694;28;20032;-62
2022/03/22 05:43:35;;;;;;;28.55;12.48;;;;;;;;;;5073654;28;20016;-62
2022/03/22 05:46:02;;;;;;;28.25;12.50;;;;;;;;;;5068831;28;20362;-62
2022/03/22 05:48:29;;;;;;;29.45;13.48;;;;;;;;;;5073710;28;20370;-62
2022/03/22 05:50:55;;;;;;;27.98;12.20;;;;;;;;;;5072642;28;20138;-62
2022/03/22 05:53:21;;;;;;;28.00;11.90;;;;;;;;;;5073210;28;20073;-62
2022/03/22 05:55:47;;;;;;;25.70;11.40;;;;;;;;;;5072686;28;20035;-62
2022/03/22 05:58:13;;;;;;;27.50;11.30;;;;;;;;;;5071368;28;20155;-62
2022/03/22 06:00:39;;;;;;;26.30;11.18;;;;;;;;;;5070978;28;20434;-62
2022/03/22 06:03:05;;;;;;;25.15;11.05;;;;;;;;;;5073363;28;20048;-61
2022/03/22 06:05:31;;;;;;;25.75;10.95;;;;;;;;;;5072172;28;20020;-62
2022/03/22 06:07:58;;;;;;;26.25;10.77;;;;;;;;;;5073223;28;20013;-62
2022/03/22 06:10:25;;;;;;;24.50;10.65;;;;;;;;;;5071183;28;20112;-61
2022/03/22 06:12:52;;;;;;;24.92;10.73;;;;;;;;;;5072962;28;20020;-62
2022/03/22 06:15:19;;;;;;;26.55;10.30;;;;;;;;;;5072917;28;20107;-61
2022/03/22 06:17:49;;;;;;;23.73;9.90;;;;;;;;;;5072919;28;20134;-61
2022/03/22 06:20:16;;;;;;;25.92;10.48;;;;;;;;;;5072750;28;20024;-61
2022/03/22 06:22:42;;;;;;;23.05;9.70;;;;;;;;;;5071016;28;20021;-62
2022/03/22 06:25:10;;;;;;;24.73;10.43;;;;;;;;;;5068900;28;20024;-61
2022/03/22 06:27:36;;;;;;;23.58;9.75;;;;;;;;;;5071362;28;20043;-62
2022/03/22 06:30:06;;;;;;;23.73;10.00;;;;;;;;;;5070926;28;20499;-62
2022/03/22 06:32:32;;;;;;;32.08;10.18;;;;;;;;;;5069159;28;20112;-62
2022/03/22 06:34:58;;;;;;;26.10;9.68;;;;;;;;;;5071389;28;20090;-62
2022/03/22 06:37:24;;;;;;;27.50;9.15;;;;;;;;;;5071035;28;20045;-62
2022/03/22 06:39:50;;;;;;;23.17;9.45;;;;;;;;;;5070831;28;20029;-63
2022/03/22 06:42:16;;;;;;;22.95;8.93;;;;;;;;;;5070241;28;20393;-63
2022/03/22 06:44:43;;;;;;;24.65;9.07;;;;;;;;;;5071118;28;20020;-62
2022/03/22 06:47:09;;;;;;;23.15;8.60;;;;;;;;;;5068004;28;20028;-61
2022/03/22 06:49:35;;;;;;;26.05;9.13;;;;;;;;;;5071928;28;20744;-62
2022/03/22 06:52:01;;;;;;;22.25;8.43;;;;;;;;;;5069947;28;20029;-62
2022/03/22 06:54:27;;;;;;;22.05;8.98;;;;;;;;;;5071208;28;20032;-62
2022/03/22 06:56:55;;;;;;;21.92;8.40;;;;;;;;;;5067561;28;20032;-62
2022/03/22 06:59:21;;;;;;;23.83;8.90;;;;;;;;;;5071819;28;20033;-62
2022/03/22 07:01:47;;;;;;;22.88;8.48;;;;;;;;;;5069877;28;20104;-62
2022/03/22 07:04:13;;;;;;;25.17;8.52;;;;;;;;;;5071994;28;20028;-63
2022/03/22 07:06:39;;;;;;;24.40;8.45;;;;;;;;;;5072469;28;20393;-61
2022/03/22 07:09:05;;;;;;;22.60;8.23;;;;;;;;;;5071828;28;20529;-61
2022/03/22 07:14:25;;;;;;;22.48;8.82;;;;;;;;;;5067246;28;20039;-62
2022/03/22 07:16:52;;;;;;;21.88;8.38;;;;;;;;;;5065876;28;20029;-62
2022/03/22 07:19:19;;;;;;;28.60;8.55;;;;;;;;;;5072240;28;20045;-62
2022/03/22 07:21:46;;;;;;;20.40;8.15;;;;;;;;;;5073033;28;20031;-62
2022/03/22 07:24:13;;;;;;;21.98;8.02;;;;;;;;;;5068501;28;20496;-61
2022/03/22 07:26:40;;;;;;;21.33;8.40;;;;;;;;;;5068972;28;20033;-60
2022/03/22 07:29:07;;;;;;;23.58;7.82;;;;;;;;;;5069804;28;20021;-62
2022/03/22 07:31:38;;;;;;;23.67;7.82;;;;;;;;;;5071576;28;20041;-61
2022/03/22 07:34:07;;;;;;;23.55;8.63;;;;;;;;;;5070318;28;20034;-62
2022/03/22 07:36:36;;;;;;;22.08;8.48;;;;;;;;;;5071470;28;20415;-61
2022/03/22 07:39:02;;;;;;;22.27;8.70;;;;;;;;;;5072818;28;20021;-62
2022/03/22 07:41:28;;;;;;;23.98;9.23;;;;;;;;;;5066645;28;20450;-63
2022/03/22 07:43:54;;;;;;;24.33;9.23;;;;;;;;;;5058089;28;20045;-63
2022/03/22 07:46:23;;;;;;;24.02;10.05;;;;;;;;;;5059212;28;20033;-62
2022/03/22 07:48:50;;;;;;;28.85;10.35;;;;;;;;;;5068962;28;20027;-62
2022/03/22 07:54:02;;;;;;;26.67;9.88;;;;;;;;;;5064342;28;20078;-61
2022/03/22 07:56:28;;;;;;;32.85;9.77;;;;;;;;;;5071282;28;20032;-61
2022/03/22 07:58:54;;;;;;;26.92;10.25;;;;;;;;;;5071890;28;20029;-65
2022/03/22 08:01:20;;;;;;;28.65;10.30;;;;;;;;;;5070689;28;20086;-60
2022/03/22 08:03:46;;;;;;;27.60;11.20;;;;;;;;;;5065714;28;20473;-62
2022/03/22 08:06:12;;;;;;;29.45;11.23;;;;;;;;;;5072346;28;20036;-61
2022/03/22 08:08:43;;;;;;;30.65;10.45;;;;;;;;;;5073488;28;20090;-63
2022/03/22 08:11:09;;;;;;;30.85;11.10;;;;;;;;;;5073034;28;20040;-65
2022/03/22 08:13:36;;;;;;;27.05;10.45;;;;;;;;;;5070139;28;20024;-64
2022/03/22 08:16:03;;;;;;;32.63;10.95;;;;;;;;;;5067878;28;20032;-64
2022/03/22 08:18:29;;;;;;;32.42;11.18;;;;;;;;;;5070652;28;20029;-63
2022/03/22 08:20:56;;;;;;;26.33;10.88;;;;;;;;;;5071145;28;20051;-65
2022/03/22 08:23:22;;;;;;;27.85;11.55;;;;;;;;;;5067885;28;20024;-69
2022/03/22 08:25:50;;;;;;;30.20;10.80;;;;;;;;;;5071449;28;20025;-64
2022/03/22 08:28:18;;;;;;;27.65;10.88;;;;;;;;;;5075407;28;20054;-62
2022/03/22 08:30:44;;;;;;;28.98;12.02;;;;;;;;;;5065482;28;20083;-64
2022/03/22 08:33:11;;;;;;;32.50;12.68;;;;;;;;;;5066097;28;20489;-67
2022/03/22 08:35:42;;;;;;;29.35;12.23;;;;;;;;;;5060925;28;20397;-63
2022/03/22 08:38:10;;;;;;;33.83;13.15;;;;;;;;;;5070829;28;20073;-65
2022/03/22 08:40:36;;;;;;;28.33;12.88;;;;;;;;;;5072493;28;20060;-63
2022/03/22 08:43:06;;;;;;;27.88;12.80;;;;;;;;;;5069823;28;20040;-65
2022/03/22 08:45:33;;;;;;;28.40;12.48;;;;;;;;;;5078452;28;20016;-64
2022/03/22 08:48:00;;;;;;;30.70;12.57;;;;;;;;;;5068968;28;20052;-66
2022/03/22 08:50:26;;;;;;;36.80;13.65;;;;;;;;;;5060811;28;20501;-64
2022/03/22 08:52:57;;;;;;;33.15;12.80;;;;;;;;;;5060264;28;20016;-65
2022/03/22 08:55:23;;;;;;;28.10;12.52;;;;;;;;;;5069221;28;20119;-65
2022/03/22 08:57:50;;;;;;;38.08;12.65;;;;;;;;;;5073682;28;20134;-64
2022/03/22 09:00:17;;;;;;;29.55;12.65;;;;;;;;;;5072170;28;20480;-66
2022/03/22 09:02:44;;;;;;;30.10;13.27;;;;;;;;;;5070195;28;20465;-64
2022/03/22 09:08:00;;;;;;;25.10;12.27;;;;;;;;;;5071315;28;20071;-63
2022/03/22 09:10:27;;;;;;;29.33;12.25;;;;;;;;;;5072099;28;20035;-64
2022/03/22 09:12:53;;;;;;;34.72;12.73;;;;;;;;;;5070196;28;20028;-64
2022/03/22 09:15:20;;;;;;;28.15;12.63;;;;;;;;;;5070032;28;20052;-65
2022/03/22 09:17:47;;;;;;;29.13;12.20;;;;;;;;;;5069330;28;20012;-64
2022/03/22 09:20:13;;;;;;;28.83;11.98;;;;;;;;;;5073783;28;20033;-64
2022/03/22 09:22:43;;;;;;;31.63;12.75;;;;;;;;;;5068952;28;20504;-64
2022/03/22 09:25:10;;;;;;;32.72;12.98;;;;;;;;;;5069110;28;20065;-65
2022/03/22 09:27:38;;;;;;;29.75;13.05;;;;;;;;;;5071396;28;20046;-63
2022/03/22 09:30:04;;;;;;;28.67;13.02;;;;;;;;;;5071275;28;20032;-64
2022/03/22 09:32:30;;;;;;;34.63;13.30;;;;;;;;;;5070763;28;20066;-63
2022/03/22 09:34:58;;;;;;;32.10;13.57;;;;;;;;;;5070361;28;20056;-63
2022/03/22 09:37:24;;;;;;;33.20;13.27;;;;;;;;;;5070807;28;20466;-64
2022/03/22 09:39:51;;;;;;;31.40;14.13;;;;;;;;;;5076419;28;20063;-65
2022/03/22 09:42:17;;;;;;;30.95;13.25;;;;;;;;;;5077247;28;20029;-64
2022/03/22 09:44:48;;;;;;;28.90;12.40;;;;;;;;;;5072937;28;20095;-64
2022/03/22 09:47:14;;;;;;;;;;;;;;;;;;5071210;28;20029;-64
2022/03/22 09:49:40;;;;;;;33.25;13.07;;;;;;;;;;5070425;28;19919;-65
2022/03/22 09:52:07;;;;;;;27.27;12.75;;;;;;;;;;5070661;28;20041;-63
2022/03/22 09:54:33;;;;;;;32.55;13.02;;;;;;;;;;5070709;28;20100;-63
2022/03/22 09:56:59;;;;;;;28.50;13.20;;;;;;;;;;5073000;28;20104;-64
2022/03/22 09:59:25;;;;;;;31.92;12.85;;;;;;;;;;5074119;28;20541;-64
2022/03/22 10:01:53;;;;;;;32.05;13.70;;;;;;;;;;5092092;28;20020;-65
2022/03/22 10:04:19;;;;;;;30.70;13.63;;;;;;;;;;5093185;28;20111;-64
2022/03/22 10:06:45;;;;;;;28.60;12.85;;;;;;;;;;5086173;28;20519;-64
2022/03/22 10:09:11;;;;;;;29.88;13.95;;;;;;;;;;5073370;28;20040;-63
2022/03/22 10:11:41;;;;;;;29.65;14.27;;;;;;;;;;5071601;28;20090;-64
2022/03/22 10:14:12;;;;;;;31.02;13.52;;;;;;;;;;5071033;28;20024;-64
2022/03/22 10:16:51;;;;;;;27.25;12.73;;;;;;;;;;5073019;28;20024;-65
2022/03/22 10:19:41;;;;;;;31.95;13.13;;;;;;;;;;5072909;28;20090;-65
2022/03/22 10:22:10;;;;;;;28.85;12.32;;;;;;;;;;5072503;28;20036;-64
2022/03/22 10:24:46;;;;;;;32.83;13.27;;;;;;;;;;5072676;28;20013;-64
2022/03/22 10:27:29;;;;;;;30.80;12.95;;;;;;;;;;5072250;28;20036;-64
2022/03/22 10:29:56;;;;;;;28.00;12.45;;;;;;;;;;5073224;28;20028;-64
2022/03/22 10:32:32;;;;;;;28.35;12.23;;;;;;;;;;5072362;28;20494;-63
2022/03/22 10:34:58;;;;;;;29.33;12.90;;;;;;;;;;5072035;28;20168;-64
2022/03/22 10:37:27;;;;;;;27.30;12.52;;;;;;;;;;5072713;28;20043;-64
2022/03/22 10:39:53;;;;;;;29.20;12.23;;;;;;;;;;5072473;28;20024;-63
2022/03/22 10:42:22;;;;;;;31.38;12.15;;;;;;;;;;5071372;28;20037;-64
2022/03/22 10:44:50;;;;;;;30.08;12.30;;;;;;;;;;5072719;28;20024;-64
2022/03/22 10:47:24;;;;;;;29.17;12.70;;;;;;;;;;5071309;28;20025;-65
2022/03/22 10:50:00;;;;;;;32.03;11.93;;;;;;;;;;5071475;28;20036;-63
2022/03/22 10:52:29;;;;;;;26.70;12.10;;;;;;;;;;5072836;28;20032;-63
2022/03/22 10:54:55;;;;;;;28.58;12.23;;;;;;;;;;5072622;28;20073;-63
2022/03/22 10:57:28;;;;;;;31.67;12.07;;;;;;;;;;5072429;28;20025;-64
2022/03/22 10:59:55;;;;;;;31.95;12.23;;;;;;;;;;5069954;28;20078;-63
2022/03/22 11:02:23;;;;;;;30.25;11.18;;;;;;;;;;5072128;28;20082;-63
2022/03/22 11:04:50;;;;;;;28.23;12.27;;;;;;;;;;5072215;28;20056;-63
2022/03/22 11:07:17;;;;;;;32.45;11.63;;;;;;;;;;5070190;28;20017;-63
2022/03/22 11:09:43;;;;;;;31.13;11.02;;;;;;;;;;5067441;28;20035;-65
2022/03/22 11:12:10;;;;;;;34.33;12.05;;;;;;;;;;5063317;28;20170;-64
2022/03/22 11:14:36;;;;;;;39.60;14.27;;;;;;;;;;5066405;28;20021;-63
2022/03/22 11:17:03;;;;;;;58.65;24.83;;;;;;;;;;5072731;28;20433;-63
2022/03/22 11:19:29;;;;;;;41.13;17.30;;;;;;;;;;5069198;28;20020;-66
2022/03/22 11:22:04;;;;;;;42.53;14.85;;;;;;;;;;5069102;28;20631;-62
2022/03/22 11:24:29;;;;;;;40.17;13.77;;;;;;;;;;5074532;28;20024;-63
2022/03/22 11:26:56;;;;;;;29.63;12.70;;;;;;;;;;5066242;28;20676;-64
2022/03/22 11:29:25;;;;;;;30.90;12.00;;;;;;;;;;5066644;28;20051;-64
2022/03/22 11:34:36;;;;;;;32.35;12.40;;;;;;;;;;5065737;28;20048;-64
2022/03/22 11:37:02;;;;;;;30.92;12.85;;;;;;;;;;5068080;28;20417;-62
2022/03/22 11:42:17;;;;;;;29.83;12.50;;;;;;;;;;5070578;28;20090;-63
2022/03/22 11:44:43;;;;;;;30.52;12.57;;;;;;;;;;5070487;28;20040;-64
2022/03/22 11:47:17;;;;;;;32.13;11.50;;;;;;;;;;5072802;28;20033;-64
2022/03/22 11:49:48;;;;;;;28.40;10.70;;;;;;;;;;5071479;28;20066;-63
2022/03/22 11:52:15;;;;;;;28.13;11.43;;;;;;;;;;5068308;28;20397;-64
2022/03/22 11:54:41;;;;;;;27.85;10.98;;;;;;;;;;5071369;28;20012;-63
2022/03/22 11:57:17;;;;;;;26.30;10.65;;;;;;;;;;5075486;28;20039;-63
2022/03/22 11:59:44;;;;;;;31.65;10.98;;;;;;;;;;5075570;28;20074;-63
2022/03/22 12:02:18;;;;;;;27.92;12.00;;;;;;;;;;5075456;28;20119;-63
2022/03/22 12:04:52;;;;;;;25.63;11.00;;;;;;;;;;5076557;28;20034;-63
2022/03/22 12:07:22;;;;;;;30.67;11.65;;;;;;;;;;5071146;28;20120;-63
2022/03/22 12:09:48;;;;;;;26.70;10.23;;;;;;;;;;5081903;28;20023;-64
2022/03/22 12:12:15;;;;;;;28.17;10.65;;;;;;;;;;5077030;28;20055;-64
2022/03/22 12:14:45;;;;;;;25.40;10.68;;;;;;;;;;5072592;28;20024;-65
2022/03/22 12:17:11;;;;;;;25.27;10.48;;;;;;;;;;5076160;28;20481;-63
2022/03/22 12:19:37;;;;;;;24.80;9.93;;;;;;;;;;5079455;28;20747;-63
2022/03/22 12:22:06;;;;;;;24.92;9.80;;;;;;;;;;5080857;28;20020;-64
2022/03/22 12:24:34;;;;;;;28.92;9.23;;;;;;;;;;5084689;28;20031;-63
2022/03/22 12:27:04;;;;;;;23.45;9.02;;;;;;;;;;5078884;28;20040;-64
2022/03/22 12:29:30;;;;;;;26.48;9.00;;;;;;;;;;5076285;28;20036;-64
2022/03/22 12:32:06;;;;;;;24.75;9.18;;;;;;;;;;5070440;28;20560;-64
2022/03/22 12:34:34;;;;;;;21.92;9.00;;;;;;;;;;5072345;28;20055;-63
2022/03/22 12:37:00;;;;;;;34.22;13.50;;;;;;;;;;5073994;28;20036;-64
2022/03/22 12:39:26;;;;;;;41.70;22.60;;;;;;;;;;5073099;28;20036;-66
2022/03/22 12:41:55;;;;;;;26.80;11.20;;;;;;;;;;5075926;28;20098;-65
2022/03/22 12:44:22;;;;;;;32.15;14.02;;;;;;;;;;5083996;28;20024;-62
2022/03/22 12:46:48;;;;;;;28.38;10.32;;;;;;;;;;5071502;28;20017;-65
2022/03/22 12:49:14;;;;;;;24.13;9.65;;;;;;;;;;5074535;28;20031;-63
2022/03/22 12:51:41;;;;;;;26.00;9.60;;;;;;;;;;5074385;28;20049;-63
2022/03/22 12:54:08;;;;;;;25.75;9.02;;;;;;;;;;5074319;28;20031;-61
2022/03/22 12:56:34;;;;;;;27.83;13.40;;;;;;;;;;5082035;28;20062;-63
2022/03/22 12:59:01;;;;;;;132.23;81.68;;;;;;;;;;5070151;28;20620;-63
2022/03/22 13:01:48;;;;;;;61.28;39.22;;;;;;;;;;5072033;28;20151;-64
2022/03/22 13:04:22;;;;;;;39.42;19.42;;;;;;;;;;5069388;28;20047;-63
2022/03/22 13:06:50;;;;;;;31.60;14.07;;;;;;;;;;5074933;28;20043;-63
2022/03/22 13:12:01;;;;;;;34.70;12.13;;;;;;;;;;5059934;28;20067;-65
2022/03/22 13:17:12;;;;;;;28.38;10.23;;;;;;;;;;5072513;28;20059;-63
2022/03/22 13:19:39;;;;;;;28.13;10.68;;;;;;;;;;5067332;28;20520;-64
2022/03/22 13:22:05;;;;;;;26.95;10.32;;;;;;;;;;5077532;28;20035;-64
2022/03/22 13:24:35;;;;;;;26.67;10.02;;;;;;;;;;5071561;28;20764;-63
2022/03/22 13:27:02;;;;;;;26.10;10.60;;;;;;;;;;5076668;28;20032;-63
2022/03/22 13:29:35;;;;;;;24.40;10.23;;;;;;;;;;5071406;28;20024;-64
2022/03/22 13:32:03;;;;;;;23.55;9.70;;;;;;;;;;5077247;28;20481;-64
2022/03/22 13:34:31;;;;;;;26.30;10.27;;;;;;;;;;5075466;28;20025;-64
2022/03/22 13:37:05;;;;;;;24.13;10.40;;;;;;;;;;5071206;28;20032;-63
2022/03/22 13:39:31;;;;;;;23.70;10.23;;;;;;;;;;5074332;28;20020;-65
2022/03/22 13:42:23;;;;;;;27.45;10.38;;;;;;;;;;5077290;28;20028;-63
2022/03/22 13:44:50;;;;;;;23.50;9.65;;;;;;;;;;5072456;28;20051;-64
2022/03/22 13:47:26;;;;;;;24.85;9.45;;;;;;;;;;5075463;28;20622;-64
2022/03/22 13:49:52;;;;;;;24.55;9.38;;;;;;;;;;5078313;28;20482;-62
2022/03/22 13:52:25;;;;;;;28.15;10.10;;;;;;;;;;5079103;28;20032;-62
2022/03/22 13:54:53;;;;;;;25.45;10.07;;;;;;;;;;5083025;28;20043;-63
2022/03/22 13:57:20;;;;;;;24.58;9.90;;;;;;;;;;5072237;28;20544;-63
2022/03/22 13:59:46;;;;;;;25.35;9.77;;;;;;;;;;5066352;28;20021;-62
2022/03/22 14:02:13;;;;;;;23.27;9.52;;;;;;;;;;5070553;28;20036;-63
2022/03/22 14:04:39;;;;;;;25.25;9.60;;;;;;;;;;5068693;28;20089;-64
2022/03/22 14:07:06;;;;;;;27.88;10.55;;;;;;;;;;5075071;28;20087;-63
2022/03/22 14:09:32;;;;;;;25.95;10.38;;;;;;;;;;5074962;28;20020;-61
2022/03/22 14:11:59;;;;;;;27.17;10.20;;;;;;;;;;5068682;28;20576;-62
2022/03/22 14:14:25;;;;;;;28.38;10.23;;;;;;;;;;5084449;28;20056;-63
2022/03/22 14:16:51;;;;;;;26.63;10.63;;;;;;;;;;5076951;28;20062;-62
2022/03/22 14:19:18;;;;;;;28.70;10.93;;;;;;;;;;5060546;28;20462;-62
2022/03/22 14:21:44;;;;;;;25.75;9.98;;;;;;;;;;5071373;28;20074;-62
2022/03/22 14:24:10;;;;;;;26.45;9.50;;;;;;;;;;5070413;28;21326;-63
2022/03/22 14:26:36;;;;;;;28.08;10.10;;;;;;;;;;5076182;28;20477;-62
2022/03/22 14:29:03;;;;;;;25.77;9.63;;;;;;;;;;5071933;28;20032;-63
2022/03/22 14:31:29;;;;;;;28.35;10.15;;;;;;;;;;5073334;28;20039;-63
2022/03/22 14:33:55;;;;;;;28.33;11.23;;;;;;;;;;5068341;28;20465;-62
2022/03/22 14:36:21;;;;;;;27.52;10.85;;;;;;;;;;5066281;28;20036;-62
2022/03/22 14:38:49;;;;;;;23.60;10.57;;;;;;;;;;5070927;28;20100;-62
2022/03/22 14:41:27;;;;;;;25.85;10.95;;;;;;;;;;5077405;28;20098;-62
2022/03/22 14:43:57;;;;;;;33.40;10.70;;;;;;;;;;5074830;28;20461;-62
2022/03/22 14:46:24;;;;;;;30.75;11.00;;;;;;;;;;5069396;28;20540;-61
2022/03/22 14:48:50;;;;;;;25.88;9.55;;;;;;;;;;5077692;28;20477;-62
2022/03/22 14:54:02;;;;;;;26.30;10.63;;;;;;;;;;5064276;28;20032;-61
2022/03/22 14:54:03;;;;;;;27.83;11.18;;;;;;;;;;5069152;28;20040;-62
2022/03/22 14:59:14;;;;;;;25.38;8.90;;;;;;;;;;5065840;28;20039;-63
2022/03/22 15:01:40;;;;;;;27.13;9.65;;;;;;;;;;5072811;28;20044;-64